createdAt,value
2023-02-19T00:01:42.967Z,1.50
2023-02-19T00:04:25.907Z,1.40
2023-02-19T00:06:56.511Z,1.37
2023-02-19T00:09:34.120Z,1.57
2023-02-19T00:12:06.856Z,1.30
2023-02-19T00:14:36.851Z,1.83
2023-02-19T00:17:07.356Z,1.60
2023-02-19T00:19:37.778Z,1.50
2023-02-19T00:22:07.202Z,1.50
2023-02-19T00:24:39.013Z,1.67
2023-02-19T00:27:09.282Z,1.70
2023-02-19T00:29:41.958Z,1.43
2023-02-19T00:32:15.071Z,1.30
2023-02-19T00:34:44.862Z,1.70
2023-02-19T00:37:13.644Z,1.30
2023-02-19T00:39:42.224Z,1.30
2023-02-19T00:42:14.629Z,1.60
2023-02-19T00:44:43.845Z,1.90
2023-02-19T00:47:13.736Z,1.50
2023-02-19T00:49:45.058Z,1.57
2023-02-19T00:52:13.732Z,1.70
2023-02-19T00:54:42.583Z,1.30
2023-02-19T00:57:14.054Z,1.40
2023-02-19T01:00:04.311Z,1.30
2023-02-19T01:02:35.797Z,1.27
2023-02-19T01:05:04.707Z,1.50
2023-02-19T01:07:33.303Z,1.20
2023-02-19T01:10:03.208Z,1.50
2023-02-19T01:12:35.720Z,1.30
2023-02-19T01:15:04.971Z,1.30
2023-02-19T01:17:36.017Z,1.50
2023-02-19T01:20:05.829Z,1.23
2023-02-19T01:22:34.452Z,1.30
2023-02-19T01:25:03.133Z,1.37
2023-02-19T01:27:34.632Z,1.37
2023-02-19T01:30:04.106Z,1.43
2023-02-19T01:32:32.804Z,1.13
2023-02-19T01:35:02.281Z,1.20
2023-02-19T01:37:31.709Z,1.50
2023-02-19T01:40:00.496Z,1.57
2023-02-19T01:42:29.146Z,1.30
2023-02-19T01:45:27.726Z,1.10
2023-02-19T01:48:11.243Z,1.10
2023-02-19T01:50:44.216Z,1.40
2023-02-19T01:53:20.689Z,1.30
2023-02-19T01:55:52.851Z,1.40
2023-02-19T01:58:21.838Z,1.23
2023-02-19T02:00:52.053Z,1.30
2023-02-19T02:03:23.449Z,1.60
2023-02-19T02:06:00.326Z,1.37
2023-02-19T02:08:49.383Z,1.47
2023-02-19T02:11:21.932Z,1.40
2023-02-19T02:13:53.431Z,1.20
2023-02-19T02:16:31.830Z,1.70
2023-02-19T02:19:17.431Z,1.63
2023-02-19T02:22:00.707Z,1.77
2023-02-19T02:24:50.085Z,1.30
2023-02-19T02:27:34.349Z,1.40
2023-02-19T02:30:21.340Z,1.67
2023-02-19T02:32:57.204Z,1.80
2023-02-19T02:35:30.850Z,1.90
2023-02-19T02:38:02.923Z,1.60
2023-02-19T02:40:34.539Z,1.90
2023-02-19T02:43:04.547Z,1.70
2023-02-19T02:45:41.106Z,1.67
2023-02-19T02:48:22.228Z,1.63
2023-02-19T02:50:56.165Z,1.80
2023-02-19T02:53:47.157Z,1.80
2023-02-19T02:56:18.541Z,1.77
2023-02-19T02:58:50.417Z,2.13
2023-02-19T03:01:42.374Z,1.70
2023-02-19T03:04:15.444Z,2.10
2023-02-19T03:06:45.966Z,2.50
2023-02-19T03:09:17.298Z,1.93
2023-02-19T03:12:08.376Z,1.97
2023-02-19T03:14:58.092Z,1.63
2023-02-19T03:17:47.431Z,1.53
2023-02-19T03:20:17.722Z,1.83
2023-02-19T03:22:46.972Z,1.80
2023-02-19T03:25:35.917Z,2.10
2023-02-19T03:28:06.034Z,1.77
2023-02-19T03:30:36.839Z,1.83
2023-02-19T03:33:10.675Z,2.20
2023-02-19T03:35:41.160Z,1.87
2023-02-19T03:38:12.175Z,2.33
2023-02-19T03:40:45.630Z,2.50
2023-02-19T03:43:19.876Z,1.93
2023-02-19T03:45:52.382Z,1.90
2023-02-19T03:48:27.307Z,1.90
2023-02-19T03:50:58.902Z,1.80
2023-02-19T03:53:30.975Z,2.07
2023-02-19T03:56:07.166Z,2.03
2023-02-19T03:58:40.599Z,2.73
2023-02-19T04:01:11.916Z,1.93
2023-02-19T04:03:45.360Z,2.37
2023-02-19T04:06:16.169Z,1.90
2023-02-19T04:08:46.534Z,2.17
2023-02-19T04:11:16.677Z,1.73
2023-02-19T04:13:47.055Z,2.13
2023-02-19T04:16:20.375Z,2.23
2023-02-19T04:18:54.720Z,2.33
2023-02-19T04:21:24.712Z,1.90
2023-02-19T04:23:53.583Z,2.10
2023-02-19T04:26:23.889Z,2.17
2023-02-19T04:28:52.586Z,1.67
2023-02-19T04:31:21.389Z,1.80
2023-02-19T04:33:51.717Z,1.80
2023-02-19T04:36:20.492Z,1.63
2023-02-19T04:38:49.345Z,1.90
2023-02-19T04:41:18.752Z,1.93
2023-02-19T04:43:48.228Z,1.57
2023-02-19T04:46:16.985Z,1.60
2023-02-19T04:48:46.394Z,1.87
2023-02-19T04:54:29.318Z,1.83
2023-02-19T04:56:58.755Z,1.70
2023-02-19T04:59:27.586Z,1.50
2023-02-19T05:01:57.559Z,1.80
2023-02-19T05:04:26.354Z,1.63
2023-02-19T05:06:55.380Z,1.60
2023-02-19T05:09:23.918Z,1.60
2023-02-19T05:11:54.460Z,1.70
2023-02-19T05:14:23.203Z,1.80
2023-02-19T05:16:52.281Z,1.40
2023-02-19T05:19:21.048Z,1.50
2023-02-19T05:21:49.539Z,1.97
2023-02-19T05:24:18.760Z,1.50
2023-02-19T05:26:48.651Z,1.73
2023-02-19T05:29:18.765Z,1.80
2023-02-19T05:31:47.987Z,1.50
2023-02-19T05:34:17.122Z,1.80
2023-02-19T05:36:46.020Z,1.57
2023-02-19T05:39:14.784Z,1.87
2023-02-19T05:41:43.639Z,1.67
2023-02-19T05:44:13.063Z,1.87
2023-02-19T05:46:43.387Z,1.70
2023-02-19T05:49:13.169Z,1.30
2023-02-19T05:51:42.626Z,1.50
2023-02-19T05:54:11.893Z,1.83
2023-02-19T05:56:41.564Z,1.70
2023-02-19T05:59:17.038Z,1.60
2023-02-19T06:01:48.867Z,1.60
2023-02-19T06:04:19.326Z,1.40
2023-02-19T06:06:48.812Z,1.60
2023-02-19T06:09:17.738Z,1.27
2023-02-19T06:11:48.136Z,1.50
2023-02-19T06:14:16.948Z,1.47
2023-02-19T06:16:47.975Z,1.80
2023-02-19T06:19:17.022Z,1.80
2023-02-19T06:21:46.800Z,1.77
2023-02-19T06:24:15.395Z,1.50
2023-02-19T06:26:44.103Z,1.77
2023-02-19T06:29:12.951Z,1.47
2023-02-19T06:31:42.661Z,1.60
2023-02-19T06:34:13.096Z,1.60
2023-02-19T06:36:42.967Z,1.57
2023-02-19T06:39:12.551Z,2.20
2023-02-19T06:41:42.269Z,1.30
2023-02-19T06:44:11.133Z,1.50
2023-02-19T06:46:39.930Z,1.53
2023-02-19T06:49:22.961Z,1.50
2023-02-19T06:51:53.572Z,1.50
2023-02-19T06:54:22.756Z,1.20
2023-02-19T06:56:51.545Z,1.37
2023-02-19T06:59:20.363Z,1.47
2023-02-19T07:01:49.319Z,1.40
2023-02-19T07:04:18.099Z,1.60
2023-02-19T07:06:47.787Z,1.50
2023-02-19T07:09:19.279Z,1.70
2023-02-19T07:11:49.219Z,1.37
2023-02-19T07:14:20.471Z,1.80
2023-02-19T07:16:50.932Z,1.63
2023-02-19T07:19:20.454Z,1.80
2023-02-19T07:21:50.384Z,1.47
2023-02-19T07:24:22.679Z,1.00
2023-02-19T07:26:51.545Z,1.50
2023-02-19T07:32:04.303Z,1.70
2023-02-19T07:34:42.554Z,1.57
2023-02-19T07:37:13.897Z,1.87
2023-02-19T07:39:44.832Z,1.30
2023-02-19T07:42:15.079Z,1.93
2023-02-19T07:44:45.238Z,1.80
2023-02-19T07:47:14.055Z,1.70
2023-02-19T07:49:43.445Z,1.80
2023-02-19T07:52:13.660Z,1.70
2023-02-19T07:54:42.806Z,1.70
2023-02-19T07:57:13.926Z,1.83
2023-02-19T07:59:45.008Z,1.60
2023-02-19T08:02:36.494Z,1.50
2023-02-19T08:05:06.665Z,1.80
2023-02-19T08:10:37.649Z,1.60
2023-02-19T08:13:28.101Z,1.90
2023-02-19T08:16:20.117Z,1.77
2023-02-19T08:18:55.146Z,1.70
2023-02-19T08:21:25.490Z,1.40
2023-02-19T08:24:01.708Z,1.60
2023-02-19T08:26:30.385Z,1.60
2023-02-19T08:29:04.662Z,1.70
2023-02-19T08:31:37.579Z,1.77
2023-02-19T08:34:08.211Z,1.70
2023-02-19T08:36:37.339Z,1.43
2023-02-19T08:39:07.003Z,1.70
2023-02-19T08:44:26.613Z,1.40
2023-02-19T08:46:57.023Z,1.60
2023-02-19T08:49:28.156Z,1.20
2023-02-19T08:51:57.799Z,1.23
2023-02-19T08:54:26.285Z,1.10
2023-02-19T08:56:54.945Z,0.97
2023-02-19T08:59:28.394Z,1.00
2023-02-19T09:01:57.837Z,1.40
2023-02-19T09:04:27.117Z,1.10
2023-02-19T09:06:55.927Z,1.10
2023-02-19T09:09:24.566Z,1.03
2023-02-19T09:11:54.723Z,1.03
2023-02-19T09:14:30.455Z,0.87
2023-02-19T09:17:06.177Z,0.90
2023-02-19T09:19:35.787Z,0.80
2023-02-19T09:22:04.948Z,0.80
2023-02-19T09:24:34.393Z,1.00
2023-02-19T09:27:04.233Z,0.80
2023-02-19T09:29:35.235Z,0.80
2023-02-19T09:32:10.864Z,0.93
2023-02-19T09:34:41.614Z,0.60
2023-02-19T09:37:11.532Z,0.67
2023-02-19T09:39:40.793Z,0.50
2023-02-19T09:42:14.908Z,0.50
2023-02-19T09:44:59.095Z,0.50
2023-02-19T09:47:31.014Z,0.30
2023-02-19T09:50:02.795Z,0.60
2023-02-19T09:52:38.241Z,0.50
2023-02-19T09:55:17.037Z,0.40
2023-02-19T09:57:47.631Z,0.40
2023-02-19T10:00:23.935Z,0.47
2023-02-19T10:03:04.320Z,0.40
2023-02-19T10:05:34.429Z,0.60
2023-02-19T10:08:09.766Z,0.67
2023-02-19T10:10:39.815Z,0.60
2023-02-19T10:13:20.248Z,0.70
2023-02-19T10:15:50.754Z,0.60
2023-02-19T10:18:24.136Z,0.73
2023-02-19T10:21:11.610Z,1.00
2023-02-19T10:24:06.314Z,0.60
2023-02-19T10:26:41.315Z,0.70
2023-02-19T10:29:25.512Z,0.77
2023-02-19T10:32:28.280Z,0.80
2023-02-19T10:35:23.339Z,0.70
2023-02-19T10:38:12.889Z,0.80
2023-02-19T10:41:13.238Z,0.83
2023-02-19T10:49:26.049Z,0.77
2023-02-19T10:52:27.401Z,0.70
2023-02-19T10:55:49.309Z,0.60
2023-02-19T10:58:35.874Z,0.60
2023-02-19T11:01:43.144Z,0.47
2023-02-19T11:04:28.244Z,0.60
2023-02-19T11:07:18.372Z,0.53
2023-02-19T11:10:39.620Z,0.60
2023-02-19T11:13:39.109Z,0.60
2023-02-19T11:19:18.165Z,0.70
2023-02-19T11:21:47.664Z,0.40
2023-02-19T11:24:26.874Z,0.63
2023-02-19T11:27:01.414Z,0.37
2023-02-19T11:29:35.044Z,0.60
2023-02-19T11:32:29.968Z,0.50
2023-02-19T11:35:19.129Z,0.60
2023-02-19T11:38:02.345Z,0.47
2023-02-19T11:40:42.437Z,0.40
2023-02-19T11:43:38.836Z,0.40
2023-02-19T11:46:14.705Z,0.50
2023-02-19T11:49:05.816Z,0.60
2023-02-19T11:52:04.978Z,0.60
2023-02-19T11:54:51.686Z,0.53
2023-02-19T11:57:55.026Z,0.50
2023-02-19T12:00:28.733Z,0.40
2023-02-19T12:03:04.917Z,0.43
2023-02-19T12:05:48.118Z,0.50
2023-02-19T12:08:42.014Z,0.53
2023-02-19T12:11:16.828Z,0.60
2023-02-19T12:13:55.855Z,0.70
2023-02-19T12:16:32.261Z,0.60
2023-02-19T12:19:18.268Z,0.60
2023-02-19T12:22:00.563Z,0.70
2023-02-19T12:27:46.103Z,0.87
2023-02-19T12:30:24.497Z,0.73
2023-02-19T12:35:53.877Z,1.10
2023-02-19T12:38:25.581Z,0.60
2023-02-19T12:41:06.203Z,0.80
2023-02-19T12:43:52.365Z,0.80
2023-02-19T12:46:26.003Z,0.70
2023-02-19T12:52:19.502Z,0.83
2023-02-19T12:55:05.331Z,0.67
2023-02-19T12:57:39.969Z,0.60
2023-02-19T13:00:19.231Z,0.63
2023-02-19T13:02:55.635Z,0.63
2023-02-19T13:05:33.748Z,1.20
2023-02-19T13:08:18.925Z,0.50
2023-02-19T13:10:54.951Z,0.70
2023-02-19T13:13:29.642Z,0.80
2023-02-19T13:16:05.593Z,0.77
2023-02-19T13:18:40.337Z,1.00
2023-02-19T13:21:13.204Z,0.70
2023-02-19T13:24:04.240Z,0.77
2023-02-19T13:26:53.115Z,0.90
2023-02-19T13:29:54.366Z,1.20
2023-02-19T13:33:00.993Z,0.80
2023-02-19T13:35:52.666Z,0.80
2023-02-19T13:38:22.895Z,0.80
2023-02-19T13:41:00.475Z,0.80
2023-02-19T13:43:35.505Z,0.90
2023-02-19T13:46:08.340Z,0.80
2023-02-19T13:49:18.293Z,0.80
2023-02-19T13:51:51.658Z,0.97
2023-02-19T13:54:42.776Z,0.90
2023-02-19T13:57:52.933Z,0.67
2023-02-19T14:00:55.298Z,0.70
2023-02-19T14:03:47.101Z,1.30
2023-02-19T14:09:04.041Z,0.60
2023-02-19T14:11:52.720Z,1.00
2023-02-19T14:14:30.474Z,0.77
2023-02-19T14:17:05.015Z,0.80
2023-02-19T14:20:05.473Z,0.70
2023-02-19T14:23:09.726Z,0.90
2023-02-19T14:25:55.213Z,0.60
2023-02-19T14:28:33.773Z,0.70
2023-02-19T14:31:07.702Z,0.90
2023-02-19T14:36:32.978Z,0.67
2023-02-19T14:39:21.746Z,1.03
2023-02-19T14:48:27.995Z,0.87
2023-02-19T14:51:01.852Z,1.00
2023-02-19T14:53:34.636Z,0.80
2023-02-19T14:56:08.314Z,1.00
2023-02-19T14:58:41.388Z,0.90
2023-02-19T15:01:31.485Z,0.83
2023-02-19T15:04:22.986Z,1.00
2023-02-19T15:07:17.885Z,0.97
2023-02-19T15:10:05.521Z,1.07
2023-02-19T15:12:41.943Z,1.13
2023-02-19T15:18:15.369Z,2.40
2023-02-19T15:20:50.136Z,1.60
2023-02-19T15:23:21.138Z,0.93
2023-02-19T15:25:53.476Z,1.00
2023-02-19T15:28:24.575Z,1.17
2023-02-19T15:31:07.969Z,1.00
2023-02-19T15:33:46.911Z,1.07
2023-02-19T15:36:16.610Z,0.70
2023-02-19T15:38:47.725Z,0.80
2023-02-19T15:41:34.455Z,1.00
2023-02-19T15:44:21.789Z,1.20
2023-02-19T15:46:56.292Z,1.00
2023-02-19T15:49:32.519Z,1.27
2023-02-19T15:52:04.388Z,0.97
2023-02-19T15:54:36.128Z,1.10
2023-02-19T15:57:10.927Z,1.00
2023-02-19T15:59:42.040Z,1.13
2023-02-19T16:02:12.223Z,0.90
2023-02-19T16:04:42.315Z,0.83
2023-02-19T16:07:26.470Z,1.20
2023-02-19T16:10:34.733Z,0.80
2023-02-19T16:13:08.747Z,1.10
2023-02-19T16:15:38.706Z,1.37
2023-02-19T16:18:10.253Z,1.10
2023-02-19T16:20:46.620Z,1.00
2023-02-19T16:23:18.353Z,1.07
2023-02-19T16:25:47.778Z,0.90
2023-02-19T16:28:25.274Z,0.90
2023-02-19T16:30:58.737Z,1.00
2023-02-19T16:33:36.906Z,0.87
2023-02-19T16:36:24.152Z,1.10
2023-02-19T16:39:07.025Z,0.90
2023-02-19T16:44:45.124Z,1.00
2023-02-19T16:47:27.474Z,1.10
2023-02-19T16:49:57.789Z,1.00
2023-02-19T16:52:41.300Z,1.03
2023-02-19T16:55:17.442Z,1.27
2023-02-19T16:58:06.481Z,1.03
2023-02-19T17:00:36.252Z,1.23
2023-02-19T17:03:11.544Z,1.10
2023-02-19T17:05:45.118Z,1.37
2023-02-19T17:08:25.800Z,1.00
2023-02-19T17:10:56.295Z,1.20
2023-02-19T17:13:28.202Z,1.17
2023-02-19T17:16:00.148Z,1.20
2023-02-19T17:24:58.933Z,1.03
2023-02-19T17:27:31.214Z,1.20
2023-02-19T17:30:01.961Z,1.20
2023-02-19T17:32:34.289Z,1.20
2023-02-19T17:35:03.858Z,1.30
2023-02-19T17:37:33.531Z,0.93
2023-02-19T17:40:09.807Z,1.03
2023-02-19T17:42:39.140Z,0.90
2023-02-19T17:45:12.086Z,1.20
2023-02-19T17:47:45.499Z,1.30
2023-02-19T17:50:27.780Z,1.50
2023-02-19T17:55:42.211Z,1.80
2023-02-19T18:01:20.642Z,1.20
2023-02-19T18:03:50.771Z,1.17
2023-02-19T18:12:55.771Z,1.50
2023-02-19T18:15:50.128Z,1.50
2023-02-19T18:18:22.981Z,1.37
2023-02-19T18:23:51.470Z,1.10
2023-02-19T18:26:26.752Z,1.53
2023-02-19T18:28:58.158Z,1.80
2023-02-19T18:31:28.715Z,1.27
2023-02-19T18:33:59.637Z,1.30
2023-02-19T18:36:30.026Z,1.23
2023-02-19T18:38:58.781Z,1.70
2023-02-19T18:41:30.508Z,1.53
2023-02-19T18:44:02.287Z,1.30
2023-02-19T18:46:33.226Z,1.27
2023-02-19T18:49:02.327Z,1.20
2023-02-19T18:51:31.793Z,1.23
2023-02-19T18:54:02.033Z,1.13
2023-02-19T18:56:32.271Z,1.40
2023-02-19T19:05:00.763Z,1.17
2023-02-19T19:07:30.272Z,1.00
2023-02-19T19:10:02.773Z,1.33
2023-02-19T19:12:33.255Z,1.00
2023-02-19T19:15:08.399Z,1.30
2023-02-19T19:17:40.210Z,1.37
2023-02-19T19:20:10.776Z,1.30
2023-02-19T19:22:42.995Z,1.17
2023-02-19T19:25:13.877Z,1.40
2023-02-19T19:27:52.688Z,1.40
2023-02-19T19:30:39.177Z,1.60
2023-02-19T19:33:18.044Z,1.50
2023-02-19T19:39:19.829Z,1.57
2023-02-19T19:41:53.411Z,1.63
2023-02-19T19:44:26.537Z,1.33
2023-02-19T19:49:54.483Z,1.40
2023-02-19T19:52:24.648Z,1.93
2023-02-19T19:57:44.410Z,1.73
2023-02-19T20:00:16.390Z,1.37
2023-02-19T20:02:45.654Z,1.50
2023-02-19T20:05:15.089Z,1.50
2023-02-19T20:07:43.584Z,1.20
2023-02-19T20:10:16.148Z,1.50
2023-02-19T20:12:46.348Z,1.60
2023-02-19T20:15:17.145Z,1.67
2023-02-19T20:18:00.724Z,1.70
2023-02-19T20:20:44.013Z,1.93
2023-02-19T20:23:13.702Z,1.50
2023-02-19T20:26:00.133Z,2.00
2023-02-19T20:31:17.926Z,1.60
2023-02-19T20:33:51.325Z,1.83
2023-02-19T20:36:21.899Z,1.70
2023-02-19T20:38:51.579Z,1.30
2023-02-19T20:41:22.165Z,2.00
2023-02-19T20:43:51.621Z,1.70
2023-02-19T20:46:21.889Z,1.57
2023-02-19T20:48:53.300Z,2.07
2023-02-19T20:51:23.635Z,1.57
2023-02-19T20:56:47.589Z,1.40
2023-02-19T20:59:20.172Z,1.70
2023-02-19T21:01:49.843Z,1.50
2023-02-19T21:04:24.506Z,1.40
2023-02-19T21:06:54.780Z,1.87
2023-02-19T21:09:24.499Z,1.70
2023-02-19T21:11:56.146Z,1.60
2023-02-19T21:14:25.497Z,1.60
2023-02-19T21:16:56.361Z,1.40
2023-02-19T21:19:28.718Z,1.50
2023-02-19T21:24:34.339Z,1.87
2023-02-19T21:27:05.363Z,1.97
2023-02-19T21:29:38.987Z,1.93
2023-02-19T21:32:10.926Z,1.60
2023-02-19T21:34:54.123Z,1.43
2023-02-19T21:37:24.202Z,1.40
2023-02-19T21:39:53.407Z,1.40
2023-02-19T21:42:28.878Z,1.40
2023-02-19T21:50:53.379Z,1.83
2023-02-19T21:56:36.094Z,1.33
2023-02-19T22:07:58.813Z,1.10
2023-02-19T22:10:30.609Z,1.57
2023-02-19T22:13:01.408Z,1.63
2023-02-19T22:15:32.973Z,1.37
2023-02-19T22:18:06.272Z,1.50
2023-02-19T22:28:51.312Z,1.70
2023-02-19T22:31:39.388Z,1.63
2023-02-19T22:34:09.862Z,1.20
2023-02-19T22:36:40.051Z,1.40
2023-02-19T22:39:13.809Z,1.63
2023-02-19T22:41:45.636Z,1.37
2023-02-19T22:44:16.921Z,1.60
2023-02-19T22:46:52.674Z,1.57
2023-02-19T22:49:30.434Z,1.60
2023-02-19T22:52:03.997Z,1.43
2023-02-19T22:54:33.753Z,1.57
2023-02-19T22:57:06.298Z,1.30
2023-02-19T22:59:36.518Z,1.40
2023-02-19T23:02:07.725Z,1.50
2023-02-19T23:04:37.107Z,1.47
2023-02-19T23:07:07.735Z,1.40
2023-02-19T23:09:36.469Z,1.40
2023-02-19T23:12:09.485Z,1.60
2023-02-19T23:14:38.776Z,1.20
2023-02-19T23:17:09.899Z,2.00
2023-02-19T23:19:39.685Z,1.70
2023-02-19T23:22:12.930Z,1.63
2023-02-19T23:24:46.305Z,1.50
2023-02-19T23:27:17.149Z,1.37
2023-02-19T23:29:54.154Z,1.30
2023-02-19T23:32:27.954Z,1.37
2023-02-19T23:35:11.885Z,1.60
2023-02-19T23:37:43.099Z,1.50
2023-02-19T23:40:26.460Z,1.40
2023-02-19T23:42:58.092Z,1.40
2023-02-19T23:45:27.964Z,1.37
2023-02-19T23:48:00.291Z,1.50
2023-02-19T23:50:30.994Z,1.37
2023-02-19T23:53:00.377Z,1.70
2023-02-19T23:55:30.386Z,1.77
2023-02-19T23:57:59.801Z,1.60
